sensor_id;sensor_type;location;lat;lon;timestamp;pressure;altitude;pressure_sealevel;temperature;humidity
32642;BME280;19323;56.072;9.698;2023-02-21T00:02:15;99880.53;;;25.37;40.73
32642;BME280;19323;56.072;9.698;2023-02-21T00:04:59;99878.88;;;25.36;40.64
32642;BME280;19323;56.072;9.698;2023-02-21T00:07:43;99885.06;;;25.36;40.68
32642;BME280;19323;56.072;9.698;2023-02-21T00:10:27;99873.34;;;25.37;40.51
32642;BME280;19323;56.072;9.698;2023-02-21T00:13:11;99891.28;;;25.37;40.56
32642;BME280;19323;56.072;9.698;2023-02-21T00:15:55;99883.22;;;25.37;40.65
32642;BME280;19323;56.072;9.698;2023-02-21T00:18:39;99874.16;;;25.38;40.66
32642;BME280;19323;56.072;9.698;2023-02-21T00:21:23;99879.69;;;25.36;40.68
32642;BME280;19323;56.072;9.698;2023-02-21T00:24:07;99889.41;;;25.37;40.62
32642;BME280;19323;56.072;9.698;2023-02-21T00:26:54;99876.84;;;25.38;40.65
32642;BME280;19323;56.072;9.698;2023-02-21T00:29:38;99887.56;;;25.38;40.58
32642;BME280;19323;56.072;9.698;2023-02-21T00:32:22;99887.56;;;25.38;40.49
32642;BME280;19323;56.072;9.698;2023-02-21T00:35:06;99885.72;;;25.38;40.32
32642;BME280;19323;56.072;9.698;2023-02-21T00:37:50;99894.78;;;25.37;40.48
32642;BME280;19323;56.072;9.698;2023-02-21T00:40:35;99901.78;;;25.38;40.40
32642;BME280;19323;56.072;9.698;2023-02-21T00:43:19;99925.09;;;25.38;40.63
32642;BME280;19323;56.072;9.698;2023-02-21T00:46:03;99896.44;;;25.38;40.32
32642;BME280;19323;56.072;9.698;2023-02-21T00:48:47;99899.31;;;25.37;40.41
32642;BME280;19323;56.072;9.698;2023-02-21T00:51:31;99900.97;;;25.38;40.40
32642;BME280;19323;56.072;9.698;2023-02-21T00:54:14;99884.88;;;25.38;40.41
32642;BME280;19323;56.072;9.698;2023-02-21T00:56:58;99916.22;;;25.37;40.53
32642;BME280;19323;56.072;9.698;2023-02-21T00:59:42;99899.31;;;25.37;40.32
32642;BME280;19323;56.072;9.698;2023-02-21T01:02:26;99904.66;;;25.37;40.24
32642;BME280;19323;56.072;9.698;2023-02-21T01:05:10;99923.44;;;25.37;40.54
32642;BME280;19323;56.072;9.698;2023-02-21T01:07:54;99919.06;;;25.36;40.22
32642;BME280;19323;56.072;9.698;2023-02-21T01:10:38;99916.38;;;25.36;40.32
32642;BME280;19323;56.072;9.698;2023-02-21T01:13:22;99876.84;;;25.06;40.45
32642;BME280;19323;56.072;9.698;2023-02-21T01:16:06;99917.41;;;25.35;40.10
32642;BME280;19323;56.072;9.698;2023-02-21T01:18:50;99934.31;;;25.35;40.44
32642;BME280;19323;56.072;9.698;2023-02-21T01:21:34;99929.78;;;25.36;40.50
32642;BME280;19323;56.072;9.698;2023-02-21T01:24:18;99921.75;;;25.36;40.16
32642;BME280;19323;56.072;9.698;2023-02-21T01:27:02;99928.97;;;25.35;40.23
32642;BME280;19323;56.072;9.698;2023-02-21T01:29:46;99924.44;;;25.36;40.46
32642;BME280;19323;56.072;9.698;2023-02-21T01:32:30;99925.47;;;25.35;40.40
32642;BME280;19323;56.072;9.698;2023-02-21T01:35:15;99930.81;;;25.35;40.39
32642;BME280;19323;56.072;9.698;2023-02-21T01:37:58;99943.38;;;25.34;40.41
32642;BME280;19323;56.072;9.698;2023-02-21T01:40:42;99937.00;;;25.35;40.18
32642;BME280;19323;56.072;9.698;2023-02-21T01:43:27;99939.69;;;25.35;40.26
32642;BME280;19323;56.072;9.698;2023-02-21T01:46:15;99924.44;;;25.36;40.23
32642;BME280;19323;56.072;9.698;2023-02-21T01:49:00;99920.75;;;25.37;40.25
32642;BME280;19323;56.072;9.698;2023-02-21T01:51:45;99925.25;;;25.36;40.08
32642;BME280;19323;56.072;9.698;2023-02-21T01:54:31;99929.78;;;25.36;40.02
32642;BME280;19323;56.072;9.698;2023-02-21T01:57:17;99931.66;;;25.35;39.95
32642;BME280;19323;56.072;9.698;2023-02-21T02:00:04;99937.00;;;25.35;39.97
32642;BME280;19323;56.072;9.698;2023-02-21T02:02:53;99938.84;;;25.35;40.33
32642;BME280;19323;56.072;9.698;2023-02-21T02:05:39;99944.22;;;25.35;40.01
32642;BME280;19323;56.072;9.698;2023-02-21T02:08:26;99938.84;;;25.35;40.33
32642;BME280;19323;56.072;9.698;2023-02-21T02:16:48;99954.09;;;25.34;40.27
32642;BME280;19323;56.072;9.698;2023-02-21T02:19:28;99964.81;;;25.34;40.31
32642;BME280;19323;56.072;9.698;2023-02-21T02:24:36;99955.94;;;25.34;40.26
32642;BME280;19323;56.072;9.698;2023-02-21T02:27:19;99958.63;;;25.34;39.98
32642;BME280;19323;56.072;9.698;2023-02-21T02:30:02;99956.97;;;25.33;40.09
32642;BME280;19323;56.072;9.698;2023-02-21T02:37:48;99952.59;;;25.32;40.03
32642;BME280;19323;56.072;9.698;2023-02-21T02:45:29;99960.63;;;25.32;40.36
32642;BME280;19323;56.072;9.698;2023-02-21T02:48:00;99967.03;;;25.31;40.09
32642;BME280;19323;56.072;9.698;2023-02-21T02:50:27;99985.78;;;25.31;40.25
32642;BME280;19323;56.072;9.698;2023-02-21T02:52:53;99992.81;;;25.32;40.26
32642;BME280;19323;56.072;9.698;2023-02-21T02:55:42;99974.03;;;25.32;40.18
32642;BME280;19323;56.072;9.698;2023-02-21T02:58:05;99974.91;;;25.32;40.24
32642;BME280;19323;56.072;9.698;2023-02-21T03:00:30;99978.41;;;25.33;40.12
32642;BME280;19323;56.072;9.698;2023-02-21T03:08:50;99963.31;;;25.32;40.20
32642;BME280;19323;56.072;9.698;2023-02-21T03:11:14;99969.72;;;25.31;40.14
32642;BME280;19323;56.072;9.698;2023-02-21T03:13:48;99969.72;;;25.31;40.31
32642;BME280;19323;56.072;9.698;2023-02-21T03:18:44;99980.44;;;25.31;40.00
32642;BME280;19323;56.072;9.698;2023-02-21T03:21:15;99979.41;;;25.32;39.94
32642;BME280;19323;56.072;9.698;2023-02-21T03:23:42;99990.13;;;25.32;40.01
32642;BME280;19323;56.072;9.698;2023-02-21T03:26:09;99998.16;;;25.32;40.04
32642;BME280;19323;56.072;9.698;2023-02-21T03:28:35;100002.69;;;25.31;40.06
32642;BME280;19323;56.072;9.698;2023-02-21T03:31:01;100012.59;;;25.31;40.11
32642;BME280;19323;56.072;9.698;2023-02-21T03:33:28;100008.06;;;25.31;40.21
32642;BME280;19323;56.072;9.698;2023-02-21T03:35:53;100012.59;;;25.31;40.08
32642;BME280;19323;56.072;9.698;2023-02-21T03:38:19;100017.94;;;25.31;40.21
32642;BME280;19323;56.072;9.698;2023-02-21T03:40:44;100029.66;;;25.29;40.08
32642;BME280;19323;56.072;9.698;2023-02-21T03:43:09;100027.00;;;25.29;40.17
32642;BME280;19323;56.072;9.698;2023-02-21T03:45:34;100024.31;;;25.29;40.15
32642;BME280;19323;56.072;9.698;2023-02-21T03:48:00;100027.84;;;25.30;40.01
32642;BME280;19323;56.072;9.698;2023-02-21T03:50:25;100034.03;;;25.31;40.20
32642;BME280;19323;56.072;9.698;2023-02-21T03:52:50;100024.31;;;25.29;40.34
32642;BME280;19323;56.072;9.698;2023-02-21T03:55:16;100028.69;;;25.31;40.00
32642;BME280;19323;56.072;9.698;2023-02-21T03:57:41;100013.59;;;25.29;40.09
32642;BME280;19323;56.072;9.698;2023-02-21T04:00:06;100026.00;;;25.31;40.10
32642;BME280;19323;56.072;9.698;2023-02-21T04:02:32;100020.78;;;25.29;40.08
32642;BME280;19323;56.072;9.698;2023-02-21T04:04:57;100017.13;;;25.30;40.03
32642;BME280;19323;56.072;9.698;2023-02-21T04:07:22;100027.00;;;25.29;40.08
32642;BME280;19323;56.072;9.698;2023-02-21T04:09:47;100031.53;;;25.29;40.04
32642;BME280;19323;56.072;9.698;2023-02-21T04:12:13;100030.69;;;25.28;40.10
32642;BME280;19323;56.072;9.698;2023-02-21T04:14:38;100038.72;;;25.28;40.10
32642;BME280;19323;56.072;9.698;2023-02-21T04:17:04;100041.41;;;25.28;40.24
32642;BME280;19323;56.072;9.698;2023-02-21T04:19:29;100047.59;;;25.29;39.95
32642;BME280;19323;56.072;9.698;2023-02-21T04:21:54;100044.25;;;25.27;40.11
32642;BME280;19323;56.072;9.698;2023-02-21T04:24:19;100051.47;;;25.26;40.14
32642;BME280;19323;56.072;9.698;2023-02-21T04:26:44;100038.91;;;25.27;40.09
32642;BME280;19323;56.072;9.698;2023-02-21T04:29:10;100044.47;;;25.25;40.00
32642;BME280;19323;56.072;9.698;2023-02-21T04:31:36;100039.94;;;25.26;40.06
32642;BME280;19323;56.072;9.698;2023-02-21T04:34:01;100040.75;;;25.26;40.19
32642;BME280;19323;56.072;9.698;2023-02-21T04:36:26;100045.28;;;25.26;40.22
32642;BME280;19323;56.072;9.698;2023-02-21T04:38:52;100053.31;;;25.26;40.08
32642;BME280;19323;56.072;9.698;2023-02-21T04:41:17;100042.59;;;25.26;40.25
32642;BME280;19323;56.072;9.698;2023-02-21T04:43:42;100050.81;;;25.24;40.26
32642;BME280;19323;56.072;9.698;2023-02-21T04:46:08;100045.44;;;25.24;40.22
32642;BME280;19323;56.072;9.698;2023-02-21T04:48:34;100047.13;;;25.25;40.12
32642;BME280;19323;56.072;9.698;2023-02-21T04:50:59;100031.06;;;25.25;40.12
32642;BME280;19323;56.072;9.698;2023-02-21T04:53:24;100031.06;;;25.25;40.03
32642;BME280;19323;56.072;9.698;2023-02-21T04:55:49;100029.38;;;25.24;40.20
32642;BME280;19323;56.072;9.698;2023-02-21T04:58:14;100044.47;;;25.25;40.36
32642;BME280;19323;56.072;9.698;2023-02-21T05:00:39;100046.28;;;25.25;40.30
32642;BME280;19323;56.072;9.698;2023-02-21T05:03:05;100047.13;;;25.25;40.21
32642;BME280;19323;56.072;9.698;2023-02-21T05:05:30;100058.69;;;25.26;40.23
32642;BME280;19323;56.072;9.698;2023-02-21T05:07:55;100047.97;;;25.26;40.24
32642;BME280;19323;56.072;9.698;2023-02-21T05:10:20;100057.00;;;25.25;40.32
32642;BME280;19323;56.072;9.698;2023-02-21T05:12:45;100027.06;;;25.05;40.04
32642;BME280;19323;56.072;9.698;2023-02-21T05:15:11;100076.63;;;25.25;40.16
32642;BME280;19323;56.072;9.698;2023-02-21T05:17:36;100081.31;;;25.23;40.30
32642;BME280;19323;56.072;9.698;2023-02-21T05:20:02;100076.78;;;25.24;40.23
32642;BME280;19323;56.072;9.698;2023-02-21T05:22:27;100069.56;;;25.24;40.25
32642;BME280;19323;56.072;9.698;2023-02-21T05:24:53;100070.59;;;25.23;40.23
32642;BME280;19323;56.072;9.698;2023-02-21T05:27:18;100060.88;;;25.22;40.14
32642;BME280;19323;56.072;9.698;2023-02-21T05:29:48;100063.53;;;25.22;40.14
32642;BME280;19323;56.072;9.698;2023-02-21T05:32:13;100072.41;;;25.23;40.05
32642;BME280;19323;56.072;9.698;2023-02-21T05:34:38;100076.94;;;25.22;40.10
32642;BME280;19323;56.072;9.698;2023-02-21T05:37:08;100082.13;;;25.24;40.02
32642;BME280;19323;56.072;9.698;2023-02-21T05:39:33;100106.44;;;25.22;40.25
32642;BME280;19323;56.072;9.698;2023-02-21T05:41:58;100108.13;;;25.23;40.13
32642;BME280;19323;56.072;9.698;2023-02-21T05:44:23;100110.97;;;25.22;40.23
32642;BME280;19323;56.072;9.698;2023-02-21T05:46:48;100104.56;;;25.23;40.24
32642;BME280;19323;56.072;9.698;2023-02-21T05:49:14;100096.72;;;25.21;40.20
32642;BME280;19323;56.072;9.698;2023-02-21T05:51:40;100093.03;;;25.22;39.91
32642;BME280;19323;56.072;9.698;2023-02-21T05:54:07;100100.06;;;25.23;40.08
32642;BME280;19323;56.072;9.698;2023-02-21T05:56:38;100104.56;;;25.23;40.04
32642;BME280;19323;56.072;9.698;2023-02-21T05:59:04;100120.50;;;25.24;40.18
32642;BME280;19323;56.072;9.698;2023-02-21T06:01:29;100119.81;;;25.22;40.04
32642;BME280;19323;56.072;9.698;2023-02-21T06:03:54;100120.50;;;25.24;40.15
32642;BME280;19323;56.072;9.698;2023-02-21T06:06:19;100128.69;;;25.23;40.37
32642;BME280;19323;56.072;9.698;2023-02-21T06:08:45;100133.22;;;25.22;40.40
32642;BME280;19323;56.072;9.698;2023-02-21T06:11:11;100078.03;;;24.80;40.10
32642;BME280;19323;56.072;9.698;2023-02-21T06:13:36;100129.88;;;25.20;40.39
32642;BME280;19323;56.072;9.698;2023-02-21T06:16:02;100133.59;;;25.19;40.43
32642;BME280;19323;56.072;9.698;2023-02-21T06:18:27;100141.75;;;25.18;40.36
32642;BME280;19323;56.072;9.698;2023-02-21T06:20:52;100141.91;;;25.16;40.51
32642;BME280;19323;56.072;9.698;2023-02-21T06:23:17;100148.28;;;25.15;40.55
32642;BME280;19323;56.072;9.698;2023-02-21T06:25:42;100146.59;;;25.14;40.63
32642;BME280;19323;56.072;9.698;2023-02-21T06:28:08;100148.63;;;25.12;40.46
32642;BME280;19323;56.072;9.698;2023-02-21T06:30:33;100158.66;;;25.10;40.52
32642;BME280;19323;56.072;9.698;2023-02-21T06:32:58;100157.69;;;25.11;40.53
32642;BME280;19323;56.072;9.698;2023-02-21T06:35:23;100157.00;;;25.09;40.73
32642;BME280;19323;56.072;9.698;2023-02-21T06:37:48;100169.56;;;25.08;40.72
32642;BME280;19323;56.072;9.698;2023-02-21T06:40:13;100165.06;;;25.09;41.13
32642;BME280;19323;56.072;9.698;2023-02-21T06:42:39;100167.38;;;25.12;40.75
32642;BME280;19323;56.072;9.698;2023-02-21T06:45:04;100162.03;;;25.12;40.77
32642;BME280;19323;56.072;9.698;2023-02-21T06:47:29;100175.41;;;25.12;40.80
32642;BME280;19323;56.072;9.698;2023-02-21T06:49:55;100175.25;;;25.14;40.66
32642;BME280;19323;56.072;9.698;2023-02-21T06:52:20;100190.16;;;25.16;40.69
32642;BME280;19323;56.072;9.698;2023-02-21T06:54:45;100189.47;;;25.14;40.65
32642;BME280;19323;56.072;9.698;2023-02-21T06:57:13;100191.50;;;25.12;40.57
32642;BME280;19323;56.072;9.698;2023-02-21T06:59:38;100199.53;;;25.12;40.45
32642;BME280;19323;56.072;9.698;2023-02-21T07:02:05;100204.22;;;25.10;40.55
32642;BME280;19323;56.072;9.698;2023-02-21T07:04:30;100206.06;;;25.09;40.30
32642;BME280;19323;56.072;9.698;2023-02-21T07:06:56;100206.06;;;25.09;40.43
32642;BME280;19323;56.072;9.698;2023-02-21T07:09:21;100210.75;;;25.07;40.27
32642;BME280;19323;56.072;9.698;2023-02-21T07:11:46;100224.16;;;25.07;40.33
32642;BME280;19323;56.072;9.698;2023-02-21T07:14:11;100223.50;;;25.05;40.21
32642;BME280;19323;56.072;9.698;2023-02-21T07:16:36;100219.97;;;25.05;40.14
32642;BME280;19323;56.072;9.698;2023-02-21T07:19:02;100211.13;;;25.04;40.09
32642;BME280;19323;56.072;9.698;2023-02-21T07:21:27;100221.84;;;25.04;40.06
32642;BME280;19323;56.072;9.698;2023-02-21T07:23:52;100230.69;;;25.05;40.05
32642;BME280;19323;56.072;9.698;2023-02-21T07:26:18;100236.06;;;25.05;39.88
32642;BME280;19323;56.072;9.698;2023-02-21T07:28:43;100240.75;;;25.03;39.83
32642;BME280;19323;56.072;9.698;2023-02-21T07:31:10;100243.44;;;25.03;39.88
32642;BME280;19323;56.072;9.698;2023-02-21T07:33:36;100238.91;;;25.03;39.76
32642;BME280;19323;56.072;9.698;2023-02-21T07:36:01;100238.91;;;25.03;39.69
32642;BME280;19323;56.072;9.698;2023-02-21T07:38:27;100242.44;;;25.04;39.69
32642;BME280;19323;56.072;9.698;2023-02-21T07:40:53;100246.09;;;25.03;39.37
32642;BME280;19323;56.072;9.698;2023-02-21T07:43:19;100249.81;;;25.02;39.43
32642;BME280;19323;56.072;9.698;2023-02-21T07:45:44;100256.81;;;25.03;39.39
32642;BME280;19323;56.072;9.698;2023-02-21T07:48:09;100261.19;;;25.04;39.38
32642;BME280;19323;56.072;9.698;2023-02-21T07:50:38;100262.19;;;25.03;39.45
32642;BME280;19323;56.072;9.698;2023-02-21T07:53:03;100263.88;;;25.04;39.41
32642;BME280;19323;56.072;9.698;2023-02-21T07:55:28;100259.50;;;25.03;39.05
32642;BME280;19323;56.072;9.698;2023-02-21T07:57:53;100257.66;;;25.03;39.17
32642;BME280;19323;56.072;9.698;2023-02-21T08:00:18;100270.06;;;25.04;38.81
32642;BME280;19323;56.072;9.698;2023-02-21T08:02:47;100277.28;;;25.04;39.02
32642;BME280;19323;56.072;9.698;2023-02-21T08:05:15;100283.47;;;25.04;38.92
32642;BME280;19323;56.072;9.698;2023-02-21T08:07:40;100270.38;;;24.85;38.99
32642;BME280;19323;56.072;9.698;2023-02-21T08:10:05;100296.69;;;25.06;38.86
32642;BME280;19323;56.072;9.698;2023-02-21T08:12:31;100292.31;;;25.05;38.61
32642;BME280;19323;56.072;9.698;2023-02-21T08:14:56;100304.75;;;25.06;38.72
32642;BME280;19323;56.072;9.698;2023-02-21T08:17:21;100308.25;;;25.06;38.70
32642;BME280;19323;56.072;9.698;2023-02-21T08:19:46;100312.59;;;25.07;38.70
32642;BME280;19323;56.072;9.698;2023-02-21T08:22:11;100316.13;;;25.08;38.54
32642;BME280;19323;56.072;9.698;2023-02-21T08:24:36;100321.50;;;25.08;38.48
32642;BME280;19323;56.072;9.698;2023-02-21T08:27:02;100327.69;;;25.08;38.45
32642;BME280;19323;56.072;9.698;2023-02-21T08:29:27;100331.19;;;25.09;38.56
32642;BME280;19323;56.072;9.698;2023-02-21T08:31:52;100329.34;;;25.09;38.37
32642;BME280;19323;56.072;9.698;2023-02-21T08:34:18;100332.03;;;25.09;38.42
32642;BME280;19323;56.072;9.698;2023-02-21T08:36:43;100332.84;;;25.10;38.59
32642;BME280;19323;56.072;9.698;2023-02-21T08:39:08;100339.91;;;25.11;38.36
32642;BME280;19323;56.072;9.698;2023-02-21T08:41:34;100334.53;;;25.11;38.06
32642;BME280;19323;56.072;9.698;2023-02-21T08:43:59;100338.06;;;25.12;38.29
32642;BME280;19323;56.072;9.698;2023-02-21T08:46:25;100336.22;;;25.12;38.07
32642;BME280;19323;56.072;9.698;2023-02-21T08:48:50;100329.03;;;25.13;38.15
32642;BME280;19323;56.072;9.698;2023-02-21T08:51:15;100321.81;;;25.13;37.85
32642;BME280;19323;56.072;9.698;2023-02-21T08:53:40;100332.53;;;25.13;38.02
32642;BME280;19323;56.072;9.698;2023-02-21T08:56:05;100332.53;;;25.13;37.91
32642;BME280;19323;56.072;9.698;2023-02-21T08:58:30;100339.56;;;25.14;37.99
32642;BME280;19323;56.072;9.698;2023-02-21T09:00:56;100349.28;;;25.15;37.74
32642;BME280;19323;56.072;9.698;2023-02-21T09:03:21;100343.94;;;25.15;37.82
32642;BME280;19323;56.072;9.698;2023-02-21T09:05:46;100349.97;;;25.17;37.96
32642;BME280;19323;56.072;9.698;2023-02-21T09:08:11;100355.31;;;25.17;38.01
32642;BME280;19323;56.072;9.698;2023-02-21T09:10:37;100354.31;;;25.18;37.68
32642;BME280;19323;56.072;9.698;2023-02-21T09:13:04;100356.03;;;25.19;37.55
32642;BME280;19323;56.072;9.698;2023-02-21T09:15:29;100349.66;;;25.20;37.84
32642;BME280;19323;56.072;9.698;2023-02-21T09:17:55;100346.00;;;25.21;37.66
32642;BME280;19323;56.072;9.698;2023-02-21T09:20:24;100353.00;;;25.22;37.70
32642;BME280;19323;56.072;9.698;2023-02-21T09:22:49;100356.50;;;25.23;37.69
32642;BME280;19323;56.072;9.698;2023-02-21T09:25:15;100361.72;;;25.24;37.71
32642;BME280;19323;56.072;9.698;2023-02-21T09:27:41;100372.44;;;25.24;37.93
32642;BME280;19323;56.072;9.698;2023-02-21T09:30:24;100358.22;;;25.24;37.88
32642;BME280;19323;56.072;9.698;2023-02-21T09:32:50;100358.06;;;25.25;38.00
32642;BME280;19323;56.072;9.698;2023-02-21T09:35:15;100346.47;;;25.25;37.88
32642;BME280;19323;56.072;9.698;2023-02-21T09:37:41;100350.16;;;25.24;37.86
32642;BME280;19323;56.072;9.698;2023-02-21T09:40:49;100358.06;;;25.25;38.13
32642;BME280;19323;56.072;9.698;2023-02-21T09:42:55;100365.06;;;25.26;38.01
32642;BME280;19323;56.072;9.698;2023-02-21T09:45:22;100374.13;;;25.25;37.91
32642;BME280;19323;56.072;9.698;2023-02-21T09:47:49;100385.69;;;25.26;38.00
32642;BME280;19323;56.072;9.698;2023-02-21T09:50:18;100373.28;;;25.25;38.07
32642;BME280;19323;56.072;9.698;2023-02-21T09:52:44;100381.16;;;25.26;38.07
32642;BME280;19323;56.072;9.698;2023-02-21T09:55:21;100377.47;;;25.27;38.01
32642;BME280;19323;56.072;9.698;2023-02-21T09:57:50;100378.31;;;25.28;37.93
32642;BME280;19323;56.072;9.698;2023-02-21T10:00:17;100381.84;;;25.28;37.79
32642;BME280;19323;56.072;9.698;2023-02-21T10:02:55;100396.06;;;25.29;37.89
32642;BME280;19323;56.072;9.698;2023-02-21T10:10:38;100414.19;;;25.35;37.67
32642;BME280;19323;56.072;9.698;2023-02-21T10:15:53;100413.16;;;25.36;37.57
32642;BME280;19323;56.072;9.698;2023-02-21T10:21:10;100425.41;;;25.39;37.38
32642;BME280;19323;56.072;9.698;2023-02-21T10:23:45;100438.81;;;25.39;37.45
32642;BME280;19323;56.072;9.698;2023-02-21T10:26:13;100445.84;;;25.40;37.26
32642;BME280;19323;56.072;9.698;2023-02-21T10:28:40;100448.53;;;25.40;37.39
32642;BME280;19323;56.072;9.698;2023-02-21T10:31:07;100445.69;;;25.41;37.22
32642;BME280;19323;56.072;9.698;2023-02-21T10:33:32;100443.00;;;25.41;37.45
32642;BME280;19323;56.072;9.698;2023-02-21T10:36:00;100439.31;;;25.42;37.28
32642;BME280;19323;56.072;9.698;2023-02-21T10:38:25;100449.19;;;25.42;37.35
32642;BME280;19323;56.072;9.698;2023-02-21T10:40:51;100451.88;;;25.42;37.50
32642;BME280;19323;56.072;9.698;2023-02-21T10:48:33;100455.09;;;25.45;37.32
32642;BME280;19323;56.072;9.698;2023-02-21T10:53:34;100454.75;;;25.48;37.42
32642;BME280;19323;56.072;9.698;2023-02-21T10:56:13;100466.00;;;25.52;37.35
32642;BME280;19323;56.072;9.698;2023-02-21T11:03:55;100485.78;;;25.59;36.88
32642;BME280;19323;56.072;9.698;2023-02-21T11:06:23;100474.88;;;25.61;36.83
32642;BME280;19323;56.072;9.698;2023-02-21T11:08:48;100484.59;;;25.62;36.82
32642;BME280;19323;56.072;9.698;2023-02-21T11:11:13;100480.91;;;25.63;36.84
32642;BME280;19323;56.072;9.698;2023-02-21T11:13:39;100473.56;;;25.65;36.76
32642;BME280;19323;56.072;9.698;2023-02-21T11:16:11;100481.41;;;25.66;36.92
32642;BME280;19323;56.072;9.698;2023-02-21T11:18:39;100483.09;;;25.67;36.62
32642;BME280;19323;56.072;9.698;2023-02-21T11:23:36;100486.47;;;25.69;36.54
32642;BME280;19323;56.072;9.698;2023-02-21T11:28:29;100481.78;;;25.72;36.78
32642;BME280;19323;56.072;9.698;2023-02-21T11:33:25;100480.59;;;25.74;36.67
32642;BME280;19323;56.072;9.698;2023-02-21T11:35:52;100484.78;;;25.77;37.00
32642;BME280;19323;56.072;9.698;2023-02-21T11:38:35;100499.69;;;25.79;36.80
32642;BME280;19323;56.072;9.698;2023-02-21T11:41:01;100509.25;;;25.82;36.87
32642;BME280;19323;56.072;9.698;2023-02-21T11:43:31;100494.84;;;25.83;37.09
32642;BME280;19323;56.072;9.698;2023-02-21T11:48:30;100502.91;;;25.83;36.83
32642;BME280;19323;56.072;9.698;2023-02-21T11:50:58;100509.09;;;25.83;37.13
32642;BME280;19323;56.072;9.698;2023-02-21T11:53:29;100510.94;;;25.83;36.88
32642;BME280;19323;56.072;9.698;2023-02-21T11:56:01;100509.25;;;25.82;37.03
32642;BME280;19323;56.072;9.698;2023-02-21T11:58:34;100510.13;;;25.82;36.97
32642;BME280;19323;56.072;9.698;2023-02-21T12:01:10;100515.63;;;25.81;37.32
32642;BME280;19323;56.072;9.698;2023-02-21T12:06:43;100519.31;;;25.80;36.87
32642;BME280;19323;56.072;9.698;2023-02-21T12:09:14;100522.00;;;25.80;36.87
32642;BME280;19323;56.072;9.698;2023-02-21T12:11:54;100516.63;;;25.80;36.86
32642;BME280;19323;56.072;9.698;2023-02-21T12:14:36;100523.69;;;25.81;36.73
32642;BME280;19323;56.072;9.698;2023-02-21T12:22:10;100517.16;;;25.83;36.78
32642;BME280;19323;56.072;9.698;2023-02-21T12:32:28;100522.34;;;25.85;36.81
32642;BME280;19323;56.072;9.698;2023-02-21T12:37:27;100532.06;;;25.86;36.68
32642;BME280;19323;56.072;9.698;2023-02-21T12:42:56;100532.06;;;25.86;36.70
32642;BME280;19323;56.072;9.698;2023-02-21T12:48:04;100529.53;;;25.84;36.89
32642;BME280;19323;56.072;9.698;2023-02-21T12:50:44;100540.94;;;25.86;36.97
32642;BME280;19323;56.072;9.698;2023-02-21T12:55:37;100541.97;;;25.85;37.02
32642;BME280;19323;56.072;9.698;2023-02-21T12:58:18;100541.13;;;25.85;37.10
32642;BME280;19323;56.072;9.698;2023-02-21T13:00:46;100540.47;;;25.83;37.19
32642;BME280;19323;56.072;9.698;2023-02-21T13:08:34;100546.81;;;25.82;37.29
32642;BME280;19323;56.072;9.698;2023-02-21T13:11:21;100553.19;;;25.81;37.00
32642;BME280;19323;56.072;9.698;2023-02-21T13:13:48;100556.88;;;25.80;37.07
32642;BME280;19323;56.072;9.698;2023-02-21T13:16:13;100552.38;;;25.80;37.23
32642;BME280;19323;56.072;9.698;2023-02-21T13:18:43;100552.53;;;25.79;36.75
32642;BME280;19323;56.072;9.698;2023-02-21T13:21:14;100555.19;;;25.79;37.13
32642;BME280;19323;56.072;9.698;2023-02-21T13:23:49;100563.25;;;25.79;36.95
32642;BME280;19323;56.072;9.698;2023-02-21T13:29:30;100555.88;;;25.81;36.94
32642;BME280;19323;56.072;9.698;2023-02-21T13:32:07;100561.25;;;25.81;36.94
32642;BME280;19323;56.072;9.698;2023-02-21T13:34:36;100562.91;;;25.82;36.82
32642;BME280;19323;56.072;9.698;2023-02-21T13:37:06;100559.25;;;25.83;36.94
32642;BME280;19323;56.072;9.698;2023-02-21T13:39:33;100558.56;;;25.81;37.24
32642;BME280;19323;56.072;9.698;2023-02-21T13:42:05;100558.56;;;25.81;37.27
32642;BME280;19323;56.072;9.698;2023-02-21T13:44:33;100561.25;;;25.81;37.04
32642;BME280;19323;56.072;9.698;2023-02-21T13:55:09;100564.44;;;25.76;37.53
32642;BME280;19323;56.072;9.698;2023-02-21T13:57:35;100566.25;;;25.76;37.55
32642;BME280;19323;56.072;9.698;2023-02-21T14:08:24;100565.09;;;25.70;37.09
32642;BME280;19323;56.072;9.698;2023-02-21T14:10:51;100577.66;;;25.69;37.02
32642;BME280;19323;56.072;9.698;2023-02-21T14:13:31;100584.84;;;25.69;36.80
32642;BME280;19323;56.072;9.698;2023-02-21T14:18:36;100587.72;;;25.67;36.87
32642;BME280;19323;56.072;9.698;2023-02-21T14:21:05;100582.34;;;25.67;37.18
32642;BME280;19323;56.072;9.698;2023-02-21T14:23:37;100590.41;;;25.67;36.96
32642;BME280;19323;56.072;9.698;2023-02-21T14:26:03;100592.22;;;25.67;36.94
32642;BME280;19323;56.072;9.698;2023-02-21T14:31:12;100602.63;;;25.70;37.21
32642;BME280;19323;56.072;9.698;2023-02-21T14:33:38;100598.94;;;25.71;37.09
32642;BME280;19323;56.072;9.698;2023-02-21T14:36:03;100599.59;;;25.73;37.08
32642;BME280;19323;56.072;9.698;2023-02-21T14:38:31;100600.63;;;25.72;37.36
32642;BME280;19323;56.072;9.698;2023-02-21T14:41:02;100608.53;;;25.74;37.08
32642;BME280;19323;56.072;9.698;2023-02-21T14:56:45;100616.56;;;25.74;37.48
32642;BME280;19323;56.072;9.698;2023-02-21T14:59:31;100612.19;;;25.73;37.29
32642;BME280;19323;56.072;9.698;2023-02-21T15:02:23;100620.25;;;25.73;37.42
32642;BME280;19323;56.072;9.698;2023-02-21T15:10:25;100630.97;;;25.73;37.60
32642;BME280;19323;56.072;9.698;2023-02-21T15:12:55;100638.19;;;25.72;37.64
32642;BME280;19323;56.072;9.698;2023-02-21T15:15:25;100632.97;;;25.70;37.44
32642;BME280;19323;56.072;9.698;2023-02-21T15:17:54;100632.13;;;25.70;37.45
32642;BME280;19323;56.072;9.698;2023-02-21T15:20:20;100636.50;;;25.71;37.44
32642;BME280;19323;56.072;9.698;2023-02-21T15:22:53;100643.69;;;25.70;37.42
32642;BME280;19323;56.072;9.698;2023-02-21T15:25:18;100645.56;;;25.70;37.34